Time;durP1;ratioP1;P1;durP2;ratioP2;P2;SDS_P1;SDS_P2;PMS_P1;PMS_P2;Temp;Humidity;BMP_temperature;BMP_pressure;BME280_temperature;BME280_humidity;BME280_pressure;Samples;Min_cycle;Max_cycle;Signal;HPM_P1;HPM_P2
2022/05/19 00:02:05;;;;;;;2.70;1.83;;;15.10;60.60;;;;;;6153145;28;20510;-62
2022/05/19 00:05:10;;;;;;;5.33;2.70;;;15.00;60.60;;;;;;6163100;28;20565;-61
2022/05/19 00:08:16;;;;;;;3.73;2.30;;;15.00;60.80;;;;;;6202719;28;20496;-59
2022/05/19 00:11:24;;;;;;;2.03;1.83;;;14.90;60.50;;;;;;6202919;28;20488;-61
2022/05/19 00:14:28;;;;;;;2.97;2.03;;;14.90;60.70;;;;;;6203091;28;20465;-60
2022/05/19 00:17:31;;;;;;;2.30;2.10;;;14.90;60.70;;;;;;6202595;28;20484;-62
2022/05/19 00:20:34;;;;;;;2.70;2.00;;;14.90;61.00;;;;;;6202612;28;20469;-60
2022/05/19 00:23:39;;;;;;;1.90;1.80;;;14.80;61.10;;;;;;6202413;28;20476;-60
2022/05/19 00:27:19;;;;;;;2.20;2.00;;;14.70;61.50;;;;;;6202528;28;20477;-61
2022/05/19 00:30:22;;;;;;;3.10;2.20;;;14.60;61.50;;;;;;6202390;28;20461;-62
2022/05/19 00:33:25;;;;;;;2.30;2.10;;;14.60;61.90;;;;;;6192919;28;20468;-68
2022/05/19 00:36:30;;;;;;;5.20;2.00;;;14.60;62.20;;;;;;6201159;28;20637;-63
2022/05/19 00:39:37;;;;;;;1.80;1.70;;;14.50;62.60;;;;;;6202249;28;20488;-65
2022/05/19 00:42:47;;;;;;;2.77;2.50;;;14.50;63.00;;;;;;6200962;28;20809;-64
2022/05/19 00:46:03;;;;;;;2.23;2.10;;;14.50;63.00;;;;;;6202448;28;20488;-65
2022/05/19 00:49:20;;;;;;;2.23;1.70;;;14.40;62.60;;;;;;6201781;28;21291;-64
2022/05/19 00:52:30;;;;;;;2.17;1.97;;;14.40;62.20;;;;;;6201066;28;20980;-63
2022/05/19 00:55:41;;;;;;;4.23;2.20;;;14.40;62.90;;;;;;6200464;28;20492;-62
2022/05/19 00:58:49;;;;;;;2.50;2.30;;;14.40;64.30;;;;;;6200456;28;20488;-62
2022/05/19 01:01:55;;;;;;;2.40;1.87;;;14.40;64.70;;;;;;6200488;28;20477;-62
2022/05/19 01:05:02;;;;;;;2.73;2.10;;;14.40;63.80;;;;;;6201365;28;20481;-62
2022/05/19 01:08:12;;;;;;;2.20;2.00;;;14.30;63.80;;;;;;6201721;28;20484;-62
2022/05/19 01:11:18;;;;;;;2.60;2.37;;;14.30;64.30;;;;;;6201519;28;20481;-62
2022/05/19 01:14:21;;;;;;;2.50;1.90;;;14.30;64.30;;;;;;6201670;28;20469;-62
2022/05/19 01:17:24;;;;;;;2.20;1.87;;;14.30;64.90;;;;;;6201291;28;20488;-62
2022/05/19 01:20:28;;;;;;;4.57;2.60;;;14.30;65.70;;;;;;6200522;28;20502;-62
2022/05/19 01:23:49;;;;;;;3.07;2.13;;;14.20;65.90;;;;;;6200883;28;20480;-62
2022/05/19 01:26:57;;;;;;;2.40;1.90;;;14.20;66.20;;;;;;6201401;28;20461;-62
2022/05/19 01:30:00;;;;;;;4.50;1.97;;;14.10;66.40;;;;;;6201512;28;20457;-62
2022/05/19 01:33:04;;;;;;;2.10;1.80;;;14.00;65.80;;;;;;6201448;28;20441;-62
2022/05/19 01:36:08;;;;;;;3.43;1.93;;;14.00;65.90;;;;;;6196853;28;20502;-62
2022/05/19 01:39:13;;;;;;;2.53;2.33;;;14.00;66.60;;;;;;6201360;28;20449;-62
2022/05/19 01:42:27;;;;;;;3.57;1.93;;;14.00;66.90;;;;;;6201283;28;20476;-62
2022/05/19 01:45:47;;;;;;;2.30;2.10;;;14.00;67.40;;;;;;6201276;28;20474;-62
2022/05/19 01:48:54;;;;;;;4.70;2.17;;;14.00;68.00;;;;;;6201581;28;20473;-62
2022/05/19 01:52:03;;;;;;;2.90;2.07;;;14.00;68.00;;;;;;6200981;28;20496;-61
2022/05/19 01:55:12;;;;;;;2.23;2.03;;;14.00;67.20;;;;;;6201234;28;20469;-62
2022/05/19 01:58:25;;;;;;;5.13;2.23;;;13.90;67.00;;;;;;6201165;28;20519;-63
2022/05/19 02:01:29;;;;;;;4.77;2.10;;;13.90;66.80;;;;;;6201370;28;20469;-63
2022/05/19 02:04:39;;;;;;;4.20;2.47;;;13.90;66.70;;;;;;6200367;28;20481;-63
2022/05/19 02:07:46;;;;;;;2.03;1.83;;;13.80;66.70;;;;;;6199810;28;20547;-63
2022/05/19 02:10:53;;;;;;;2.50;2.30;;;13.80;66.90;;;;;;6200824;28;20469;-62
2022/05/19 02:14:02;;;;;;;2.67;2.47;;;13.80;67.10;;;;;;6200966;28;20472;-62
2022/05/19 02:17:08;;;;;;;3.77;1.97;;;13.80;67.10;;;;;;6200745;28;20469;-63
2022/05/19 02:20:15;;;;;;;2.30;2.10;;;13.80;67.40;;;;;;6200713;28;20944;-63
2022/05/19 02:23:19;;;;;;;2.17;1.87;;;13.80;67.40;;;;;;6200272;28;20470;-63
2022/05/19 02:26:22;;;;;;;2.30;1.83;;;13.70;67.70;;;;;;6200840;28;20864;-63
2022/05/19 02:29:27;;;;;;;2.17;1.90;;;13.70;68.60;;;;;;6200622;28;20501;-63
2022/05/19 02:32:30;;;;;;;2.60;2.40;;;13.70;68.70;;;;;;6201757;28;20473;-63
2022/05/19 02:35:33;;;;;;;2.17;1.97;;;13.60;68.60;;;;;;6203867;28;20480;-63
2022/05/19 02:38:37;;;;;;;3.10;1.93;;;13.60;68.70;;;;;;6204092;28;20806;-63
2022/05/19 02:41:41;;;;;;;2.13;1.93;;;13.50;68.50;;;;;;6203781;28;20812;-63
2022/05/19 02:44:45;;;;;;;2.40;2.20;;;13.50;69.80;;;;;;6202905;28;20814;-63
2022/05/19 02:47:48;;;;;;;2.60;1.83;;;13.50;69.10;;;;;;6203265;28;20473;-63
2022/05/19 02:50:52;;;;;;;2.20;2.10;;;13.50;69.00;;;;;;6204116;28;20468;-63
2022/05/19 02:53:55;;;;;;;2.87;1.93;;;13.40;69.00;;;;;;6203371;28;20464;-63
2022/05/19 02:56:58;;;;;;;1.90;1.70;;;13.30;68.70;;;;;;6203507;28;20484;-63
2022/05/19 03:00:06;;;;;;;1.90;1.63;;;13.20;69.40;;;;;;6203156;28;20786;-63
2022/05/19 03:03:09;;;;;;;5.23;2.10;;;13.10;69.90;;;;;;6203751;28;20438;-63
2022/05/19 03:06:12;;;;;;;3.80;3.37;;;13.20;70.70;;;;;;6203068;28;20457;-63
2022/05/19 03:09:16;;;;;;;2.40;2.17;;;13.10;70.50;;;;;;6204546;28;20460;-63
2022/05/19 03:12:19;;;;;;;2.80;2.13;;;13.10;70.60;;;;;;6204113;28;20473;-63
2022/05/19 03:15:25;;;;;;;1.97;1.87;;;13.00;70.60;;;;;;6202834;28;20477;-63
2022/05/19 03:18:28;;;;;;;2.10;1.90;;;13.00;71.10;;;;;;6203831;28;20483;-63
2022/05/19 03:21:31;;;;;;;2.63;2.10;;;13.00;71.20;;;;;;6204196;28;20492;-63
2022/05/19 03:24:34;;;;;;;3.60;2.50;;;13.00;71.00;;;;;;6203131;28;20496;-63
2022/05/19 03:27:38;;;;;;;2.60;2.37;;;13.00;71.30;;;;;;6202845;28;20490;-63
2022/05/19 03:30:45;;;;;;;3.57;2.23;;;13.00;71.10;;;;;;6202377;28;20476;-63
2022/05/19 03:33:49;;;;;;;2.93;2.10;;;13.00;71.00;;;;;;6202466;28;20779;-63
2022/05/19 03:36:52;;;;;;;4.00;2.37;;;13.00;71.00;;;;;;6202371;28;20485;-63
2022/05/19 03:39:55;;;;;;;2.60;2.17;;;13.00;71.20;;;;;;6202574;28;20480;-63
2022/05/19 03:42:58;;;;;;;2.20;1.83;;;13.00;71.20;;;;;;6201878;28;20492;-62
2022/05/19 03:46:04;;;;;;;3.50;2.47;;;13.00;71.30;;;;;;6194571;28;20469;-62
2022/05/19 03:49:08;;;;;;;3.00;2.23;;;13.00;71.40;;;;;;6203606;28;21037;-62
2022/05/19 03:52:12;;;;;;;2.80;2.60;;;13.00;71.70;;;;;;6203008;28;20477;-62
2022/05/19 03:55:16;;;;;;;5.10;2.40;;;13.10;72.40;;;;;;6202898;28;20485;-62
2022/05/19 03:58:19;;;;;;;2.20;1.93;;;13.10;72.40;;;;;;6202712;28;20469;-63
2022/05/19 04:01:23;;;;;;;3.00;2.40;;;13.10;72.20;;;;;;6203259;28;20487;-62
2022/05/19 04:04:27;;;;;;;3.87;2.60;;;13.10;72.00;;;;;;6203349;28;20472;-62
2022/05/19 04:07:30;;;;;;;2.40;2.20;;;13.00;72.30;;;;;;6202728;28;20475;-63
2022/05/19 04:10:33;;;;;;;2.27;2.07;;;13.00;72.30;;;;;;6203139;28;20469;-62
2022/05/19 04:13:37;;;;;;;3.27;2.50;;;13.10;72.50;;;;;;6202711;28;20484;-63
2022/05/19 04:16:41;;;;;;;7.57;2.60;;;13.00;72.80;;;;;;6201636;28;20476;-62
2022/05/19 04:19:44;;;;;;;2.00;1.80;;;13.10;73.40;;;;;;6201212;28;20952;-62
2022/05/19 04:22:48;;;;;;;3.70;2.43;;;13.20;73.20;;;;;;6201139;28;20480;-63
2022/05/19 04:25:51;;;;;;;4.33;2.87;;;13.40;72.80;;;;;;6200657;28;20983;-63
2022/05/19 04:28:55;;;;;;;3.63;2.40;;;13.50;72.40;;;;;;6201539;28;21111;-62
2022/05/19 04:31:59;;;;;;;2.47;2.00;;;13.60;72.20;;;;;;6202598;28;20469;-62
2022/05/19 04:35:03;;;;;;;2.60;1.83;;;13.70;71.60;;;;;;6201864;28;20500;-63
2022/05/19 04:38:07;;;;;;;3.70;2.37;;;13.80;71.10;;;;;;6202271;28;20483;-62
2022/05/19 04:41:10;;;;;;;4.70;3.33;;;13.90;70.90;;;;;;6201857;28;20473;-63
2022/05/19 04:44:13;;;;;;;3.20;2.90;;;14.00;71.00;;;;;;6201668;28;20557;-62
2022/05/19 04:47:18;;;;;;;2.30;2.20;;;14.00;70.90;;;;;;6202015;28;20488;-62
2022/05/19 04:50:21;;;;;;;6.30;3.10;;;14.20;70.50;;;;;;6193355;28;20556;-62
2022/05/19 04:53:24;;;;;;;4.73;2.97;;;14.40;69.70;;;;;;6201884;28;20567;-62
2022/05/19 04:56:30;;;;;;;11.80;3.23;;;14.40;70.00;;;;;;6201623;28;20811;-63
2022/05/19 04:59:36;;;;;;;5.80;3.10;;;14.60;69.80;;;;;;6202177;28;21080;-62
2022/05/19 05:02:41;;;;;;;3.80;3.37;;;14.70;69.90;;;;;;6201832;28;20469;-62
2022/05/19 05:05:45;;;;;;;4.03;3.03;;;14.90;69.60;;;;;;6201571;28;20497;-63
2022/05/19 05:08:48;;;;;;;3.07;2.77;;;15.00;69.10;;;;;;6201548;28;20476;-62
2022/05/19 05:11:51;;;;;;;3.47;3.13;;;15.10;69.20;;;;;;6201737;28;20484;-62
2022/05/19 05:14:54;;;;;;;2.80;2.57;;;15.30;69.40;;;;;;6201038;28;20472;-63
2022/05/19 05:17:59;;;;;;;4.73;3.07;;;15.50;69.00;;;;;;6201414;28;20880;-63
2022/05/19 05:21:06;;;;;;;4.40;3.40;;;15.70;68.50;;;;;;6201053;28;20444;-63
2022/05/19 05:24:09;;;;;;;3.40;3.10;;;15.80;68.00;;;;;;6201800;28;20448;-63
2022/05/19 05:27:12;;;;;;;3.07;2.77;;;16.00;67.90;;;;;;6200995;28;20497;-63
2022/05/19 05:30:16;;;;;;;5.57;3.23;;;16.00;67.40;;;;;;6201503;28;20541;-63
2022/05/19 05:33:20;;;;;;;4.63;2.33;;;16.10;67.40;;;;;;6200943;28;20495;-63
2022/05/19 05:36:24;;;;;;;5.70;3.40;;;16.30;67.50;;;;;;6201510;28;20465;-63
2022/05/19 05:39:27;;;;;;;7.37;3.13;;;16.40;66.50;;;;;;6201182;28;20461;-63
2022/05/19 05:42:36;;;;;;;5.13;3.57;;;16.60;65.90;;;;;;6201621;28;20477;-63
2022/05/19 05:45:41;;;;;;;4.17;3.40;;;16.70;64.70;;;;;;6201585;28;20552;-63
2022/05/19 05:48:48;;;;;;;7.23;4.63;;;16.90;64.40;;;;;;6202712;28;20476;-63
2022/05/19 05:51:51;;;;;;;3.30;2.87;;;17.30;62.80;;;;;;6197369;28;20611;-63
2022/05/19 05:54:55;;;;;;;3.73;3.40;;;17.70;60.90;;;;;;6200883;28;20479;-63
2022/05/19 05:57:59;;;;;;;17.07;3.70;;;18.30;59.80;;;;;;6200901;28;20786;-63
2022/05/19 06:01:03;;;;;;;4.40;3.67;;;19.10;57.70;;;;;;6201376;28;20469;-63
2022/05/19 06:04:07;;;;;;;6.63;3.63;;;19.60;56.40;;;;;;6201697;28;20230;-63
2022/05/19 06:07:11;;;;;;;7.00;3.70;;;20.20;55.50;;;;;;6202127;28;20236;-63
2022/05/19 06:10:15;;;;;;;7.00;3.37;;;20.70;54.00;;;;;;6206423;28;20568;-62
2022/05/19 06:13:18;;;;;;;4.93;3.67;;;21.50;52.70;;;;;;6207510;28;20252;-63
2022/05/19 06:16:22;;;;;;;4.20;3.37;;;22.00;51.40;;;;;;6206927;28;20244;-65
2022/05/19 06:19:26;;;;;;;6.70;3.60;;;22.50;50.00;;;;;;6207593;28;20756;-64
2022/05/19 06:22:30;;;;;;;7.30;3.83;;;23.20;49.40;;;;;;6207121;28;20291;-64
2022/05/19 06:25:33;;;;;;;5.57;3.57;;;23.70;47.60;;;;;;6206851;28;20252;-64
2022/05/19 06:28:36;;;;;;;4.30;3.90;;;24.40;46.50;;;;;;6207051;28;20237;-65
2022/05/19 06:31:39;;;;;;;6.57;3.90;;;25.00;44.60;;;;;;6206595;28;20233;-63
2022/05/19 06:34:44;;;;;;;3.80;3.50;;;25.80;43.10;;;;;;6206616;28;20239;-63
2022/05/19 06:37:48;;;;;;;5.17;3.30;;;26.40;40.70;;;;;;6207076;28;20241;-63
2022/05/19 06:40:51;;;;;;;5.57;3.30;;;27.00;39.70;;;;;;6206543;28;20234;-62
2022/05/19 06:43:57;;;;;;;5.07;3.60;;;27.30;38.50;;;;;;6206170;28;20240;-63
2022/05/19 06:47:01;;;;;;;3.63;3.33;;;27.60;38.20;;;;;;6205696;28;20233;-63
2022/05/19 06:50:09;;;;;;;3.80;3.13;;;28.40;37.00;;;;;;6205434;28;20225;-64
2022/05/19 06:53:13;;;;;;;6.30;3.50;;;28.70;36.30;;;;;;6205202;28;20244;-64
2022/05/19 06:56:16;;;;;;;3.83;3.33;;;29.30;35.40;;;;;;6204596;28;20229;-63
2022/05/19 06:59:22;;;;;;;4.90;3.60;;;30.20;34.20;;;;;;6205178;28;20229;-64
2022/05/19 07:02:26;;;;;;;6.20;3.73;;;31.00;32.80;;;;;;6205114;28;20692;-64
2022/05/19 07:05:35;;;;;;;4.33;3.90;;;31.50;31.60;;;;;;6204088;28;20579;-64
2022/05/19 07:08:38;;;;;;;7.97;3.30;;;31.90;30.90;;;;;;6204531;28;20230;-64
2022/05/19 07:11:42;;;;;;;5.53;3.35;;;32.60;30.40;;;;;;6204230;28;20243;-65
2022/05/19 07:14:45;;;;;;;4.38;3.50;;;33.30;29.50;;;;;;6204410;28;20225;-64
2022/05/19 07:17:49;;;;;;;7.15;4.45;;;33.70;28.80;;;;;;6203958;28;20221;-64
2022/05/19 07:20:54;;;;;;;4.68;3.67;;;34.30;28.60;;;;;;6204383;28;20574;-64
2022/05/19 07:23:57;;;;;;;3.70;3.40;;;34.20;28.30;;;;;;6204534;28;20197;-64
2022/05/19 07:27:01;;;;;;;3.75;3.45;;;33.90;28.20;;;;;;6204102;28;20578;-65
2022/05/19 07:30:06;;;;;;;5.53;3.72;;;33.00;28.70;;;;;;6204520;28;20244;-64
2022/05/19 07:33:10;;;;;;;5.15;3.60;;;32.10;29.80;;;;;;6204609;28;20209;-65
2022/05/19 07:36:14;;;;;;;6.60;4.45;;;33.10;29.40;;;;;;6203777;28;20375;-64
2022/05/19 07:39:17;;;;;;;4.63;4.18;;;32.70;28.60;;;;;;6203990;28;20234;-65
2022/05/19 07:42:21;;;;;;;4.53;4.10;;;32.80;29.10;;;;;;6204439;28;20267;-65
2022/05/19 07:45:25;;;;;;;6.35;4.35;;;34.20;28.30;;;;;;6206030;28;20232;-65
2022/05/19 07:48:28;;;;;;;4.68;3.90;;;35.10;27.60;;;;;;6204006;28;20688;-65
2022/05/19 07:51:37;;;;;;;5.70;3.78;;;36.30;26.10;;;;;;6203246;28;20233;-65
2022/05/19 07:54:40;;;;;;;4.82;4.30;;;36.70;25.20;;;;;;6204022;28;20248;-65
2022/05/19 07:57:43;;;;;;;4.88;3.38;;;36.40;25.20;;;;;;6203675;28;20683;-65
2022/05/19 08:00:47;;;;;;;3.15;2.85;;;36.10;25.70;;;;;;6194407;28;20240;-64
2022/05/19 08:03:50;;;;;;;4.15;3.50;;;36.70;25.20;;;;;;6201603;28;20239;-62
2022/05/19 08:06:56;;;;;;;3.85;3.55;;;36.40;25.20;;;;;;6205947;28;20237;-64
2022/05/19 08:16:40;;;;;;;4.15;2.85;;;33.70;26.40;;;;;;6228218;28;20729;-63
2022/05/19 08:19:45;;;;;;;4.10;3.70;;;32.70;27.10;;;;;;6228065;28;20319;-63
2022/05/19 08:23:26;;;;;;;4.68;3.38;;;32.30;28.00;;;;;;6205046;28;20372;-63
2022/05/19 08:27:07;;;;;;;9.02;4.55;;;31.10;28.40;;;;;;6202735;28;20233;-69
2022/05/19 08:30:31;;;;;;;3.40;2.73;;;28.90;30.40;;;;;;6201969;28;20649;-64
2022/05/19 08:33:37;;;;;;;4.87;3.87;;;28.20;31.00;;;;;;6202058;28;20229;-64
2022/05/19 08:36:40;;;;;;;8.80;4.33;;;27.50;31.90;;;;;;6202559;28;20229;-64
2022/05/19 08:39:43;;;;;;;5.67;3.30;;;26.60;34.50;;;;;;6222989;28;20232;-64
2022/05/19 08:42:52;;;;;;;3.50;3.20;;;26.40;35.30;;;;;;6226842;28;20224;-64
2022/05/19 08:46:00;;;;;;;4.53;4.20;;;26.40;35.60;;;;;;6226568;28;20228;-64
2022/05/19 08:49:09;;;;;;;6.13;3.87;;;25.90;36.50;;;;;;6226860;28;20326;-63
2022/05/19 08:52:16;;;;;;;6.00;3.80;;;25.70;37.80;;;;;;6225803;28;20723;-63
2022/05/19 08:55:20;;;;;;;3.90;2.93;;;25.40;38.50;;;;;;6226319;28;20255;-63
2022/05/19 08:58:36;;;;;;;3.87;3.57;;;25.40;38.30;;;;;;6226098;28;20225;-62
2022/05/19 09:01:46;;;;;;;3.90;3.40;;;24.80;38.90;;;;;;6219717;28;20229;-63
2022/05/19 09:05:00;;;;;;;3.60;3.30;;;24.80;39.70;;;;;;6194528;28;20229;-64
2022/05/19 09:08:11;;;;;;;6.10;3.30;;;24.50;40.00;;;;;;6175291;28;20249;-63
2022/05/19 09:11:18;;;;;;;4.30;3.70;;;24.30;39.50;;;;;;6177191;28;20230;-63
2022/05/19 09:14:23;;;;;;;3.43;3.13;;;24.20;39.20;;;;;;6153525;29;20255;-63
2022/05/19 09:17:31;;;;;;;4.27;3.87;;;24.30;39.90;;;;;;6153105;29;20250;-64
2022/05/19 09:20:41;;;;;;;5.40;3.30;;;24.40;39.40;;;;;;6173867;28;20238;-64
2022/05/19 09:23:44;;;;;;;4.13;3.70;;;24.10;39.80;;;;;;6178662;28;20234;-64
2022/05/19 09:26:50;;;;;;;3.83;3.30;;;24.40;40.30;;;;;;6178311;28;20234;-63
2022/05/19 09:29:55;;;;;;;5.03;4.37;;;24.80;40.40;;;;;;6177193;28;20245;-63
2022/05/19 09:33:00;;;;;;;5.23;3.60;;;25.00;39.70;;;;;;6177387;28;20647;-63
2022/05/19 09:36:11;;;;;;;4.87;3.50;;;24.70;40.10;;;;;;6177355;28;20222;-62
2022/05/19 09:39:16;;;;;;;4.57;4.17;;;24.90;39.90;;;;;;6177600;28;20261;-63
2022/05/19 09:42:24;;;;;;;5.87;3.90;;;25.10;39.70;;;;;;6176132;28;20241;-62
2022/05/19 09:45:29;;;;;;;4.67;3.70;;;25.10;39.70;;;;;;6176618;28;20245;-63
2022/05/19 09:48:36;;;;;;;4.10;3.73;;;25.10;39.90;;;;;;6177182;28;20242;-62
2022/05/19 09:51:43;;;;;;;3.50;3.20;;;24.60;40.20;;;;;;6177041;28;20231;-63
2022/05/19 09:54:53;;;;;;;4.50;3.63;;;24.80;40.60;;;;;;6176571;28;20709;-62
2022/05/19 09:57:59;;;;;;;5.63;3.87;;;25.10;40.40;;;;;;6177344;28;20240;-62
2022/05/19 10:01:06;;;;;;;3.87;3.53;;;25.10;40.60;;;;;;6176933;28;20250;-62
2022/05/19 10:04:18;;;;;;;3.77;3.40;;;25.00;39.60;;;;;;6170022;28;20585;-63
2022/05/19 10:07:24;;;;;;;7.40;3.73;;;25.10;39.50;;;;;;6186813;28;20238;-64
2022/05/19 10:10:31;;;;;;;4.83;3.67;;;24.80;39.10;;;;;;6201273;28;20240;-65
2022/05/19 10:13:39;;;;;;;3.70;3.40;;;24.90;39.00;;;;;;6200606;28;20243;-64
2022/05/19 10:16:54;;;;;;;4.17;3.53;;;25.00;38.80;;;;;;6201162;28;20233;-65
2022/05/19 10:20:06;;;;;;;5.43;3.03;;;24.90;38.60;;;;;;6200434;28;20229;-64
2022/05/19 10:23:22;;;;;;;4.07;3.20;;;24.70;38.80;;;;;;6200341;28;20237;-64
2022/05/19 10:26:40;;;;;;;5.57;3.70;;;24.80;39.30;;;;;;6201332;28;20240;-65
2022/05/19 10:33:25;;;;;;;3.87;3.47;;;25.00;38.90;;;;;;6200320;28;20243;-65
2022/05/19 10:36:42;;;;;;;3.80;3.50;;;25.10;38.60;;;;;;6200737;28;20381;-64
2022/05/19 10:40:02;;;;;;;3.60;3.30;;;25.30;39.10;;;;;;6201181;28;20236;-65
2022/05/19 10:43:18;;;;;;;8.83;4.30;;;25.40;39.40;;;;;;6200439;28;20311;-64
2022/05/19 10:46:27;;;;;;;3.97;3.67;;;25.10;40.30;;;;;;6200173;28;20556;-65
2022/05/19 10:49:59;;;;;;;3.80;2.87;;;25.10;40.70;;;;;;6199837;28;20898;-65
2022/05/19 10:53:32;;;;;;;4.13;3.30;;;25.20;40.60;;;;;;6186520;28;20681;-65
2022/05/19 10:57:10;;;;;;;4.37;2.97;;;25.40;40.60;;;;;;6204102;28;20465;-65
2022/05/19 11:00:20;;;;;;;5.83;3.33;;;25.50;40.40;;;;;;6203787;28;20217;-63
2022/05/19 11:03:57;;;;;;;3.97;3.67;;;25.80;40.10;;;;;;6203789;28;20225;-66
2022/05/19 11:07:21;;;;;;;5.03;3.40;;;26.00;40.40;;;;;;6203918;28;20292;-67
2022/05/19 11:10:37;;;;;;;3.67;3.20;;;25.80;39.40;;;;;;6199707;28;20238;-67
2022/05/19 11:13:52;;;;;;;3.87;3.20;;;25.60;40.20;;;;;;6204375;28;20344;-65
2022/05/19 11:17:04;;;;;;;3.30;3.00;;;25.50;40.00;;;;;;6204425;28;20242;-65
2022/05/19 11:20:13;;;;;;;5.03;3.00;;;25.10;39.70;;;;;;6204443;28;20229;-65
2022/05/19 11:23:25;;;;;;;3.43;3.13;;;25.00;39.80;;;;;;6203500;28;20229;-66
2022/05/19 11:30:33;;;;;;;3.43;2.87;;;25.40;38.00;;;;;;6204705;28;20288;-67
2022/05/19 11:33:40;;;;;;;3.67;2.77;;;25.50;38.10;;;;;;6204828;28;20320;-65
2022/05/19 11:36:50;;;;;;;3.20;2.90;;;25.70;37.80;;;;;;6203968;28;20237;-66
2022/05/19 11:40:09;;;;;;;3.90;2.93;;;25.80;38.00;;;;;;6203366;28;20229;-68
2022/05/19 11:43:21;;;;;;;3.67;3.13;;;25.70;37.80;;;;;;6205176;28;20230;-69
2022/05/19 11:46:32;;;;;;;4.00;3.00;;;25.20;38.30;;;;;;6203816;28;20324;-66
2022/05/19 11:56:25;;;;;;;3.17;2.87;;;25.40;38.30;;;;;;6173860;28;20233;-65
2022/05/19 11:59:28;;;;;;;3.83;3.00;;;25.70;38.10;;;;;;6203487;28;20282;-65
2022/05/19 12:02:38;;;;;;;4.03;3.10;;;25.50;38.50;;;;;;6203031;28;20233;-66
2022/05/19 12:05:51;;;;;;;3.47;3.10;;;25.50;37.70;;;;;;6201453;28;20245;-63
2022/05/19 12:08:59;;;;;;;3.17;2.97;;;25.50;37.80;;;;;;6202825;28;20242;-63
2022/05/19 12:12:05;;;;;;;3.40;3.00;;;25.80;38.00;;;;;;6202622;28;20529;-63
2022/05/19 12:15:22;;;;;;;4.73;3.00;;;26.10;37.40;;;;;;6193655;28;20244;-63
2022/05/19 12:18:45;;;;;;;3.20;2.87;;;26.20;37.00;;;;;;6202848;28;20229;-66
2022/05/19 12:21:53;;;;;;;4.07;3.37;;;26.20;36.80;;;;;;6202777;28;20272;-68
2022/05/19 12:25:07;;;;;;;4.23;3.03;;;26.40;37.30;;;;;;6202722;28;20524;-65
2022/05/19 12:28:30;;;;;;;3.47;3.00;;;26.50;36.40;;;;;;6202808;28;20230;-67
2022/05/19 12:35:03;;;;;;;2.77;2.53;;;26.20;36.60;;;;;;6202248;28;20743;-64
2022/05/19 12:38:27;;;;;;;3.67;3.07;;;26.00;37.20;;;;;;6202428;28;20274;-62
2022/05/19 12:41:40;;;;;;;3.17;2.87;;;26.00;37.50;;;;;;6202226;28;20244;-65
2022/05/19 12:44:46;;;;;;;9.90;3.10;;;26.00;37.50;;;;;;6202037;28;20681;-67
2022/05/19 12:47:59;;;;;;;3.37;3.03;;;25.90;37.50;;;;;;6202345;28;20561;-64
2022/05/19 12:51:15;;;;;;;4.17;3.17;;;26.10;37.60;;;;;;6201951;28;20220;-66
2022/05/19 12:54:20;;;;;;;3.50;3.20;;;26.10;37.60;;;;;;6202951;28;20233;-66
2022/05/19 12:57:27;;;;;;;4.13;3.80;;;26.00;37.90;;;;;;6201616;28;20229;-68
2022/05/19 13:00:35;;;;;;;5.33;2.97;;;25.80;37.60;;;;;;6202377;28;20244;-67
2022/05/19 13:03:39;;;;;;;4.00;3.53;;;25.60;38.30;;;;;;6202115;28;20273;-64
2022/05/19 13:06:51;;;;;;;4.60;2.93;;;25.60;38.20;;;;;;6196832;28;20237;-65
2022/05/19 13:10:09;;;;;;;3.40;2.97;;;25.70;38.40;;;;;;6200337;28;20652;-65
2022/05/19 13:13:24;;;;;;;5.03;3.27;;;25.70;37.90;;;;;;6199685;28;20240;-65
2022/05/19 13:16:31;;;;;;;4.30;2.77;;;25.30;38.50;;;;;;6200214;28;20233;-65
2022/05/19 13:19:38;;;;;;;4.30;3.07;;;25.10;39.00;;;;;;6190600;28;20252;-64
2022/05/19 13:22:52;;;;;;;3.50;2.97;;;25.20;39.20;;;;;;6201709;28;20244;-66
2022/05/19 13:26:01;;;;;;;5.67;2.87;;;25.10;39.00;;;;;;6200007;28;20243;-64
2022/05/19 13:32:34;;;;;;;4.40;2.80;;;25.40;38.80;;;;;;6200338;28;20576;-65
2022/05/19 13:35:37;;;;;;;5.10;2.67;;;25.60;39.30;;;;;;6199897;28;20578;-65
2022/05/19 13:38:42;;;;;;;2.77;2.57;;;25.60;39.40;;;;;;6200223;28;20686;-64
2022/05/19 13:41:47;;;;;;;3.17;2.80;;;25.60;38.80;;;;;;6199993;28;20685;-64
2022/05/19 13:44:53;;;;;;;5.50;3.03;;;25.50;39.10;;;;;;6200034;28;20230;-64
2022/05/19 13:47:57;;;;;;;4.60;2.70;;;25.60;38.90;;;;;;6199757;28;20236;-65
2022/05/19 13:51:04;;;;;;;4.83;3.17;;;25.60;39.10;;;;;;6200063;28;20221;-66
2022/05/19 13:54:10;;;;;;;4.00;3.03;;;25.80;38.90;;;;;;6199192;28;20209;-64
2022/05/19 13:57:24;;;;;;;4.07;3.07;;;25.80;38.40;;;;;;6200220;28;20229;-64
2022/05/19 14:00:30;;;;;;;4.63;3.03;;;25.60;38.80;;;;;;6199496;28;20348;-66
2022/05/19 14:03:33;;;;;;;4.00;2.70;;;25.50;39.00;;;;;;6199268;28;20859;-66
2022/05/19 14:06:39;;;;;;;3.10;2.60;;;25.60;39.10;;;;;;6199234;28;20668;-66
2022/05/19 14:09:53;;;;;;;4.00;3.30;;;25.70;38.40;;;;;;6199600;28;20233;-63
2022/05/19 14:13:02;;;;;;;3.90;3.30;;;25.80;38.40;;;;;;6199217;28;20693;-64
2022/05/19 14:16:09;;;;;;;5.90;3.00;;;25.80;38.20;;;;;;6199255;28;20644;-64
2022/05/19 14:19:24;;;;;;;5.00;3.07;;;26.00;38.10;;;;;;6199518;28;20224;-64
2022/05/19 14:22:28;;;;;;;3.37;2.73;;;25.90;38.10;;;;;;6189842;28;20233;-64
2022/05/19 14:25:37;;;;;;;4.47;2.70;;;25.90;37.80;;;;;;6199485;28;20572;-63
2022/05/19 14:28:43;;;;;;;3.07;2.60;;;26.00;37.40;;;;;;6201933;28;20243;-64
2022/05/19 14:31:56;;;;;;;3.60;2.97;;;25.90;37.70;;;;;;6204078;28;20693;-64
2022/05/19 14:35:08;;;;;;;3.70;2.63;;;26.00;37.40;;;;;;6203511;28;20247;-65
2022/05/19 14:38:18;;;;;;;2.77;2.57;;;26.00;37.70;;;;;;6203141;28;20291;-64
2022/05/19 14:44:52;;;;;;;2.70;2.50;;;25.80;37.50;;;;;;6203639;28;20235;-66
2022/05/19 14:47:56;;;;;;;4.23;2.97;;;25.90;37.70;;;;;;6203164;28;20233;-66
2022/05/19 14:51:02;;;;;;;3.50;2.87;;;26.00;37.30;;;;;;6203326;28;20221;-64
2022/05/19 14:54:10;;;;;;;3.30;2.50;;;26.10;36.80;;;;;;6202986;28;20225;-64
2022/05/19 14:57:20;;;;;;;4.30;3.03;;;26.20;36.80;;;;;;6203336;28;20679;-64
2022/05/19 15:00:26;;;;;;;3.93;2.70;;;26.30;36.90;;;;;;6203404;28;20261;-64
2022/05/19 15:03:29;;;;;;;2.73;2.53;;;26.20;36.80;;;;;;6203615;28;20237;-64
2022/05/19 15:06:33;;;;;;;5.70;2.97;;;26.30;36.90;;;;;;6202755;28;20237;-65
2022/05/19 15:09:37;;;;;;;3.17;2.90;;;26.30;36.90;;;;;;6204229;28;20225;-64
2022/05/19 15:12:41;;;;;;;3.50;3.20;;;26.30;37.60;;;;;;6203645;28;20737;-63
2022/05/19 15:15:45;;;;;;;3.43;3.13;;;26.00;37.30;;;;;;6203200;28;20233;-66
2022/05/19 15:18:48;;;;;;;5.60;3.37;;;26.10;37.10;;;;;;6203634;28;20307;-65
2022/05/19 15:21:52;;;;;;;3.17;2.50;;;26.20;36.70;;;;;;6203133;28;20229;-66
2022/05/19 15:24:55;;;;;;;5.70;3.63;;;26.30;36.70;;;;;;6198412;28;20240;-65
2022/05/19 15:28:00;;;;;;;3.03;2.53;;;26.30;36.30;;;;;;6202669;28;20683;-64
2022/05/19 15:31:03;;;;;;;8.43;2.60;;;26.40;36.10;;;;;;6203182;28;20233;-64
2022/05/19 15:34:07;;;;;;;4.57;2.80;;;26.50;36.10;;;;;;6202470;28;20229;-66
2022/05/19 15:37:15;;;;;;;2.90;2.70;;;26.40;36.00;;;;;;6202329;28;20241;-65
2022/05/19 15:40:21;;;;;;;5.10;2.77;;;26.20;35.70;;;;;;6200962;28;20229;-65
2022/05/19 15:43:34;;;;;;;3.93;2.70;;;26.10;36.10;;;;;;6202537;28;20320;-66
2022/05/19 15:46:37;;;;;;;3.70;2.73;;;26.00;36.50;;;;;;6202151;28;20229;-65
2022/05/19 15:49:40;;;;;;;5.17;2.97;;;26.20;36.30;;;;;;6201757;28;20695;-65
2022/05/19 15:52:46;;;;;;;5.00;2.83;;;26.10;36.40;;;;;;6201889;28;20866;-65
2022/05/19 15:56:09;;;;;;;2.87;2.63;;;26.10;36.60;;;;;;6202057;28;20234;-64
2022/05/19 15:59:14;;;;;;;6.07;2.77;;;26.30;36.50;;;;;;6202275;28;20257;-64
2022/05/19 16:02:23;;;;;;;5.53;2.70;;;26.40;36.60;;;;;;6202172;28;20236;-64
2022/05/19 16:05:27;;;;;;;3.50;3.00;;;26.40;36.60;;;;;;6201107;28;20635;-66
2022/05/19 16:08:31;;;;;;;2.60;2.10;;;26.30;36.70;;;;;;6201972;28;20240;-66
2022/05/19 16:11:35;;;;;;;4.83;2.80;;;26.30;36.70;;;;;;6201234;28;20657;-67
2022/05/19 16:14:39;;;;;;;2.57;2.37;;;26.10;37.10;;;;;;6201777;28;20229;-65
2022/05/19 16:17:43;;;;;;;2.80;2.07;;;26.10;37.20;;;;;;6201517;28;20239;-65
2022/05/19 16:20:46;;;;;;;4.00;3.17;;;26.20;36.90;;;;;;6201709;28;20225;-65
2022/05/19 16:23:51;;;;;;;3.60;2.23;;;26.20;37.00;;;;;;6201240;28;20241;-66
2022/05/19 16:26:54;;;;;;;4.33;2.37;;;26.20;37.00;;;;;;6202081;28;20244;-65
2022/05/19 16:29:58;;;;;;;2.60;2.40;;;26.10;37.00;;;;;;6201166;28;20312;-65
2022/05/19 16:33:02;;;;;;;5.23;2.70;;;26.10;36.80;;;;;;6200017;28;20225;-65
2022/05/19 16:36:06;;;;;;;5.80;2.63;;;25.90;36.90;;;;;;6200500;28;20225;-66
2022/05/19 16:39:10;;;;;;;2.53;2.07;;;25.90;37.10;;;;;;6201264;28;20296;-64
2022/05/19 16:42:13;;;;;;;4.10;2.90;;;25.90;37.50;;;;;;6200631;28;20665;-63
2022/05/19 16:45:17;;;;;;;4.40;2.20;;;25.90;37.30;;;;;;6201049;28;20669;-65
2022/05/19 16:48:21;;;;;;;4.27;2.80;;;25.80;37.40;;;;;;6200330;28;20226;-63